Time;durP1;ratioP1;P1;durP2;ratioP2;P2;SDS_P1;SDS_P2;PMS_P1;PMS_P2;Temp;Humidity;BMP_temperature;BMP_pressure;BME280_temperature;BME280_humidity;BME280_pressure;Samples;Min_cycle;Max_cycle;Signal;HPM_P1;HPM_P2
2023/01/20 00:01:46;;;;;;;8.30;5.68;;;;;;;;;;5117334;27;20643;-86
2023/01/20 00:04:17;;;;;;;17.92;9.90;;;;;;;;;;5116524;28;20184;-88
2023/01/20 00:06:45;;;;;;;10.07;6.43;;;;;;;;;;5116279;28;20215;-88
2023/01/20 00:09:17;;;;;;;5.88;5.10;;;;;;;;;;5115919;27;20199;-86
2023/01/20 00:11:45;;;;;;;7.05;4.75;;;;;;;;;;5116615;28;20192;-88
2023/01/20 00:14:13;;;;;;;7.15;5.53;;;;;;;;;;5116525;28;20238;-87
2023/01/20 00:16:40;;;;;;;5.15;4.53;;;;;;;;;;5116975;28;20738;-87
2023/01/20 00:19:08;;;;;;;5.78;4.60;;;;;;;;;;5116566;28;20637;-86
2023/01/20 00:21:35;;;;;;;7.75;5.65;;;;;;;;;;5116093;28;20252;-86
2023/01/20 00:24:03;;;;;;;4.80;4.15;;;;;;;;;;5116190;28;20664;-86
2023/01/20 00:26:32;;;;;;;5.13;4.47;;;;;;;;;;5116579;28;20306;-86
2023/01/20 00:28:59;;;;;;;5.45;4.95;;;;;;;;;;5116324;28;20200;-86
2023/01/20 00:31:29;;;;;;;4.28;3.88;;;;;;;;;;5116674;28;20211;-85
2023/01/20 00:33:58;;;;;;;4.93;4.43;;;;;;;;;;5116338;28;20227;-85
2023/01/20 00:36:27;;;;;;;8.18;6.13;;;;;;;;;;5113707;28;20302;-86
2023/01/20 00:38:55;;;;;;;8.82;6.85;;;;;;;;;;5113130;28;20287;-85
2023/01/20 00:41:23;;;;;;;9.55;7.68;;;;;;;;;;5114760;28;20256;-87
2023/01/20 00:43:51;;;;;;;9.23;8.15;;;;;;;;;;5113183;28;20196;-86
2023/01/20 00:46:21;;;;;;;10.50;7.90;;;;;;;;;;5113300;28;20219;-87
2023/01/20 00:48:49;;;;;;;8.93;7.45;;;;;;;;;;5113154;28;20203;-86
2023/01/20 00:51:16;;;;;;;9.02;6.95;;;;;;;;;;5113386;28;20196;-86
2023/01/20 00:53:44;;;;;;;14.02;8.50;;;;;;;;;;5113925;28;20204;-86
2023/01/20 00:56:11;;;;;;;6.53;5.68;;;;;;;;;;5113325;28;20319;-86
2023/01/20 00:58:39;;;;;;;8.95;6.75;;;;;;;;;;5114720;28;20290;-86
2023/01/20 01:01:08;;;;;;;8.10;7.28;;;;;;;;;;5117406;28;20549;-86
2023/01/20 01:03:35;;;;;;;8.60;6.60;;;;;;;;;;5117069;28;20203;-85
2023/01/20 01:06:11;;;;;;;8.90;6.07;;;;;;;;;;5117350;28;20314;-86
2023/01/20 01:08:39;;;;;;;6.72;5.57;;;;;;;;;;5117593;28;20564;-86
2023/01/20 01:11:07;;;;;;;7.40;6.65;;;;;;;;;;5117168;28;20235;-86
2023/01/20 01:13:36;;;;;;;5.80;5.15;;;;;;;;;;5117573;28;20262;-86
2023/01/20 01:16:03;;;;;;;6.13;5.15;;;;;;;;;;5117305;28;20224;-86
2023/01/20 01:18:32;;;;;;;6.47;5.53;;;;;;;;;;5116784;28;20282;-86
2023/01/20 01:21:00;;;;;;;7.45;6.22;;;;;;;;;;5116978;28;20290;-87
2023/01/20 01:23:27;;;;;;;6.68;4.90;;;;;;;;;;5116294;28;20206;-87
2023/01/20 01:25:55;;;;;;;6.47;4.43;;;;;;;;;;5116365;28;20654;-86
2023/01/20 01:28:22;;;;;;;3.60;3.30;;;;;;;;;;5107830;28;20240;-86
2023/01/20 01:30:49;;;;;;;4.13;3.47;;;;;;;;;;5096159;28;20283;-87
2023/01/20 01:33:17;;;;;;;5.65;3.38;;;;;;;;;;5096358;28;20292;-87
2023/01/20 01:35:56;;;;;;;3.92;3.28;;;;;;;;;;5096171;28;20228;-86
2023/01/20 01:38:23;;;;;;;4.13;3.65;;;;;;;;;;5096463;28;20594;-86
2023/01/20 01:40:51;;;;;;;6.28;3.67;;;;;;;;;;5096256;28;20196;-85
2023/01/20 01:43:24;;;;;;;4.90;4.40;;;;;;;;;;5095914;28;20196;-87
2023/01/20 01:45:51;;;;;;;4.10;3.33;;;;;;;;;;5096309;28;20238;-88
2023/01/20 01:48:21;;;;;;;5.10;4.38;;;;;;;;;;5095409;28;20228;-86
2023/01/20 01:50:54;;;;;;;5.78;5.13;;;;;;;;;;5096642;28;20246;-87
2023/01/20 01:53:22;;;;;;;6.10;5.05;;;;;;;;;;5096504;28;20271;-86
2023/01/20 01:55:53;;;;;;;6.28;4.70;;;;;;;;;;5096080;28;20260;-87
2023/01/20 01:58:24;;;;;;;5.03;4.40;;;;;;;;;;5096199;28;20201;-84
2023/01/20 02:00:52;;;;;;;6.65;5.20;;;;;;;;;;5096379;28;20191;-86
2023/01/20 02:03:20;;;;;;;7.63;5.32;;;;;;;;;;5096065;28;20295;-86
2023/01/20 02:05:50;;;;;;;7.85;5.53;;;;;;;;;;5095965;28;20692;-86
2023/01/20 02:08:18;;;;;;;5.82;5.22;;;;;;;;;;5096317;28;20568;-86
2023/01/20 02:10:45;;;;;;;5.05;4.22;;;;;;;;;;5095577;28;20574;-86
2023/01/20 02:13:13;;;;;;;6.85;5.18;;;;;;;;;;5096858;28;20913;-86
2023/01/20 02:15:46;;;;;;;7.85;5.82;;;;;;;;;;5096105;28;20319;-88
2023/01/20 02:18:29;;;;;;;4.55;3.88;;;;;;;;;;5095838;28;20644;-86
2023/01/20 02:21:48;;;;;;;8.23;6.55;;;;;;;;;;5095670;28;20177;-86
2023/01/20 02:25:12;;;;;;;18.52;12.30;;;;;;;;;;5082571;28;20211;-86
2023/01/20 02:28:28;;;;;;;9.50;6.28;;;;;;;;;;5095654;28;20180;-86
2023/01/20 02:31:43;;;;;;;8.40;6.10;;;;;;;;;;5095285;28;20188;-86
2023/01/20 02:34:15;;;;;;;9.95;6.97;;;;;;;;;;5046163;28;20203;-86
2023/01/20 02:36:47;;;;;;;8.35;5.82;;;;;;;;;;5095197;28;20228;-86
2023/01/20 02:39:18;;;;;;;6.60;4.88;;;;;;;;;;5095591;28;20216;-86
2023/01/20 02:41:55;;;;;;;7.05;5.38;;;;;;;;;;5095317;28;20192;-85
2023/01/20 02:44:28;;;;;;;4.20;3.80;;;;;;;;;;5095467;28;20187;-86
2023/01/20 02:47:02;;;;;;;9.52;4.20;;;;;;;;;;5095202;28;20246;-86
2023/01/20 02:49:34;;;;;;;4.57;3.92;;;;;;;;;;5094988;28;20192;-86
2023/01/20 02:52:05;;;;;;;3.90;3.50;;;;;;;;;;5094980;28;20207;-86
2023/01/20 02:54:36;;;;;;;3.22;2.92;;;;;;;;;;5095174;28;20214;-86
2023/01/20 02:57:06;;;;;;;3.33;2.70;;;;;;;;;;5094038;28;20274;-86
2023/01/20 02:59:39;;;;;;;2.60;2.40;;;;;;;;;;5094700;28;20629;-86
2023/01/20 03:02:10;;;;;;;2.60;2.40;;;;;;;;;;5094928;28;20630;-86
2023/01/20 03:04:44;;;;;;;3.30;3.03;;;;;;;;;;5095054;28;20681;-86
2023/01/20 03:07:12;;;;;;;4.75;3.53;;;;;;;;;;5094589;28;20212;-87
2023/01/20 03:09:43;;;;;;;7.13;4.43;;;;;;;;;;5094909;28;20219;-86
2023/01/20 03:12:19;;;;;;;6.47;4.60;;;;;;;;;;5094978;28;20211;-87
2023/01/20 03:14:47;;;;;;;5.28;4.78;;;;;;;;;;5094976;28;20188;-86
2023/01/20 03:17:16;;;;;;;5.57;5.00;;;;;;;;;;5094106;28;20259;-87
2023/01/20 03:19:43;;;;;;;6.10;4.90;;;;;;;;;;5093926;28;20238;-87
2023/01/20 03:22:11;;;;;;;5.45;4.97;;;;;;;;;;5094422;28;20287;-88
2023/01/20 03:24:39;;;;;;;5.55;4.78;;;;;;;;;;5094736;28;20295;-86
2023/01/20 03:27:07;;;;;;;6.40;5.45;;;;;;;;;;5094101;28;20223;-87
2023/01/20 03:29:34;;;;;;;6.80;4.38;;;;;;;;;;5094126;28;20291;-87
2023/01/20 03:32:03;;;;;;;6.53;5.50;;;;;;;;;;5094382;28;20200;-86
2023/01/20 03:34:35;;;;;;;5.25;4.75;;;;;;;;;;5094671;28;20292;-86
2023/01/20 03:37:03;;;;;;;4.60;4.18;;;;;;;;;;5093867;28;20221;-86
2023/01/20 03:39:31;;;;;;;8.93;7.93;;;;;;;;;;5093922;28;20238;-87
2023/01/20 03:42:07;;;;;;;8.15;7.07;;;;;;;;;;5094087;28;20600;-86
2023/01/20 03:44:46;;;;;;;9.18;7.53;;;;;;;;;;5094788;28;20184;-86
2023/01/20 03:47:20;;;;;;;6.47;5.72;;;;;;;;;;5093863;28;20252;-86
2023/01/20 03:49:54;;;;;;;10.00;6.57;;;;;;;;;;5093652;28;20250;-86
2023/01/20 03:52:27;;;;;;;8.10;6.50;;;;;;;;;;5093746;28;20275;-87
2023/01/20 03:55:01;;;;;;;6.50;5.85;;;;;;;;;;5094095;28;20280;-87
2023/01/20 03:57:34;;;;;;;4.65;4.25;;;;;;;;;;5094437;28;20646;-86
2023/01/20 04:00:04;;;;;;;5.85;4.25;;;;;;;;;;5093847;28;20303;-86
2023/01/20 04:02:33;;;;;;;6.85;6.10;;;;;;;;;;5094508;28;20627;-86
2023/01/20 04:05:02;;;;;;;6.57;4.65;;;;;;;;;;5093824;28;20235;-85
2023/01/20 04:07:31;;;;;;;6.50;5.85;;;;;;;;;;5093570;28;20717;-85
2023/01/20 04:10:03;;;;;;;6.20;5.07;;;;;;;;;;5093492;28;20728;-86
2023/01/20 04:12:31;;;;;;;6.22;4.03;;;;;;;;;;5093681;28;20271;-87
2023/01/20 04:14:58;;;;;;;8.85;3.90;;;;;;;;;;5094278;28;20232;-86
2023/01/20 04:17:28;;;;;;;6.38;5.43;;;;;;;;;;5094615;28;20303;-87
2023/01/20 04:19:56;;;;;;;5.40;4.85;;;;;;;;;;5094525;28;20291;-87
2023/01/20 04:22:29;;;;;;;5.60;4.03;;;;;;;;;;5094423;28;20291;-86
2023/01/20 04:25:01;;;;;;;4.82;4.32;;;;;;;;;;5094027;28;20207;-85
2023/01/20 04:27:28;;;;;;;3.97;3.58;;;;;;;;;;5093556;28;20185;-87
2023/01/20 04:29:56;;;;;;;8.77;4.15;;;;;;;;;;5093819;28;20200;-86
2023/01/20 04:32:23;;;;;;;4.78;4.28;;;;;;;;;;5093890;28;20204;-86
2023/01/20 04:34:52;;;;;;;4.75;4.32;;;;;;;;;;5097200;28;20195;-86
2023/01/20 04:37:19;;;;;;;4.28;3.65;;;;;;;;;;5097840;28;20224;-86
2023/01/20 04:39:48;;;;;;;5.03;3.70;;;;;;;;;;5097403;28;20203;-86
2023/01/20 04:42:16;;;;;;;6.05;4.43;;;;;;;;;;5097777;28;20206;-86
2023/01/20 04:44:43;;;;;;;4.68;4.07;;;;;;;;;;5098534;28;20232;-90
2023/01/20 04:47:11;;;;;;;4.00;3.60;;;;;;;;;;5098890;28;20951;-86
2023/01/20 04:49:38;;;;;;;5.00;3.97;;;;;;;;;;5098780;28;20291;-87
2023/01/20 04:52:06;;;;;;;5.20;4.43;;;;;;;;;;5097506;28;20290;-88
2023/01/20 04:54:33;;;;;;;4.00;3.55;;;;;;;;;;5099744;28;20604;-87
2023/01/20 04:57:02;;;;;;;4.03;3.25;;;;;;;;;;5099792;28;20223;-88
2023/01/20 04:59:30;;;;;;;3.78;3.35;;;;;;;;;;5101245;28;20944;-88
2023/01/20 05:01:57;;;;;;;2.83;2.60;;;;;;;;;;5099060;28;20228;-87
2023/01/20 05:04:25;;;;;;;21.88;17.25;;;;;;;;;;5098239;28;20244;-86
2023/01/20 05:06:52;;;;;;;12.00;10.00;;;;;;;;;;5098286;28;20260;-88
2023/01/20 05:09:22;;;;;;;9.63;6.25;;;;;;;;;;5098384;28;20240;-87
2023/01/20 05:11:49;;;;;;;5.47;4.15;;;;;;;;;;5097694;28;20208;-87
2023/01/20 05:14:18;;;;;;;5.68;4.65;;;;;;;;;;5098497;28;20255;-86
2023/01/20 05:16:46;;;;;;;5.65;4.95;;;;;;;;;;5097848;28;20255;-88
2023/01/20 05:19:14;;;;;;;5.22;3.83;;;;;;;;;;5098161;28;20307;-87
2023/01/20 05:21:42;;;;;;;3.72;3.22;;;;;;;;;;5098389;28;20189;-87
2023/01/20 05:24:11;;;;;;;2.78;2.58;;;;;;;;;;5098431;28;20204;-87
2023/01/20 05:26:39;;;;;;;4.85;3.10;;;;;;;;;;5098416;28;20255;-87
2023/01/20 05:29:08;;;;;;;4.55;3.35;;;;;;;;;;5098099;28;20292;-87
2023/01/20 05:31:41;;;;;;;3.42;2.83;;;;;;;;;;5097939;28;20208;-86
2023/01/20 05:34:09;;;;;;;4.65;4.25;;;;;;;;;;5097614;28;20184;-87
2023/01/20 05:36:37;;;;;;;5.70;4.97;;;;;;;;;;5097852;28;20220;-86
2023/01/20 05:39:04;;;;;;;4.07;3.70;;;;;;;;;;5097602;28;20937;-87
2023/01/20 05:41:32;;;;;;;4.30;3.90;;;;;;;;;;5099091;28;20729;-88
2023/01/20 05:43:59;;;;;;;5.43;3.38;;;;;;;;;;5100408;28;20242;-87
2023/01/20 05:46:28;;;;;;;4.78;4.28;;;;;;;;;;5100031;28;20310;-87
2023/01/20 05:48:57;;;;;;;5.97;3.97;;;;;;;;;;5099957;28;20266;-87
2023/01/20 05:51:25;;;;;;;3.47;3.17;;;;;;;;;;5099775;28;20236;-88
2023/01/20 05:53:52;;;;;;;4.47;4.07;;;;;;;;;;5099680;28;20200;-87
2023/01/20 05:56:20;;;;;;;4.68;3.95;;;;;;;;;;5099831;28;20785;-87
2023/01/20 05:58:47;;;;;;;4.43;3.80;;;;;;;;;;5099694;28;20663;-88
2023/01/20 06:01:15;;;;;;;9.15;7.05;;;;;;;;;;5099664;28;20223;-87
2023/01/20 06:03:45;;;;;;;10.65;8.73;;;;;;;;;;5099831;28;20666;-88
2023/01/20 06:06:17;;;;;;;7.70;5.78;;;;;;;;;;5100434;28;20299;-87
2023/01/20 06:08:45;;;;;;;6.90;4.85;;;;;;;;;;5100052;28;20605;-88
2023/01/20 06:11:13;;;;;;;5.15;3.47;;;;;;;;;;5100177;28;20196;-88
2023/01/20 06:13:42;;;;;;;5.22;4.70;;;;;;;;;;5099703;28;20196;-87
2023/01/20 06:16:09;;;;;;;6.28;5.10;;;;;;;;;;5100245;28;20220;-87
2023/01/20 06:18:37;;;;;;;6.15;3.78;;;;;;;;;;5099144;28;20216;-88
2023/01/20 06:21:04;;;;;;;5.05;4.53;;;;;;;;;;5099547;28;20263;-87
2023/01/20 06:23:33;;;;;;;4.55;4.15;;;;;;;;;;5099128;28;20192;-87
2023/01/20 06:26:02;;;;;;;3.88;3.58;;;;;;;;;;5098533;28;20299;-88
2023/01/20 06:28:31;;;;;;;4.13;3.72;;;;;;;;;;5099040;28;20291;-87
2023/01/20 06:31:03;;;;;;;4.18;3.22;;;;;;;;;;5098651;28;20204;-87
2023/01/20 06:33:31;;;;;;;3.20;2.47;;;;;;;;;;5097725;28;20299;-88
2023/01/20 06:35:59;;;;;;;3.13;2.83;;;;;;;;;;5099589;28;20284;-87
2023/01/20 06:38:28;;;;;;;6.43;5.10;;;;;;;;;;5099666;28;20287;-87
2023/01/20 06:41:00;;;;;;;10.80;6.05;;;;;;;;;;5101267;28;20239;-88
2023/01/20 06:43:29;;;;;;;5.05;3.97;;;;;;;;;;5101220;28;20230;-87
2023/01/20 06:46:00;;;;;;;4.18;3.63;;;;;;;;;;5101161;28;20305;-87
2023/01/20 06:48:27;;;;;;;4.75;3.42;;;;;;;;;;5101366;28;20204;-88
2023/01/20 06:51:00;;;;;;;6.40;3.83;;;;;;;;;;5100699;28;20235;-87
2023/01/20 06:53:27;;;;;;;3.53;3.22;;;;;;;;;;5100568;28;20207;-88
2023/01/20 06:55:56;;;;;;;7.03;3.53;;;;;;;;;;5100396;28;20252;-87
2023/01/20 06:58:25;;;;;;;4.60;3.58;;;;;;;;;;5101539;28;20220;-88
2023/01/20 07:00:53;;;;;;;4.25;3.75;;;;;;;;;;5101494;28;20279;-88
2023/01/20 07:03:21;;;;;;;6.18;4.68;;;;;;;;;;5100002;28;20264;-89
2023/01/20 07:05:56;;;;;;;5.18;4.18;;;;;;;;;;5099173;28;20634;-88
2023/01/20 07:08:24;;;;;;;4.93;4.18;;;;;;;;;;5099746;28;20220;-87
2023/01/20 07:10:52;;;;;;;5.78;4.30;;;;;;;;;;5100222;28;20207;-86
2023/01/20 07:13:19;;;;;;;4.85;3.47;;;;;;;;;;5099809;28;20204;-87
2023/01/20 07:15:48;;;;;;;5.72;4.78;;;;;;;;;;5099027;28;20240;-87
2023/01/20 07:18:19;;;;;;;6.97;5.97;;;;;;;;;;5099603;28;20188;-87
2023/01/20 07:21:01;;;;;;;6.25;5.50;;;;;;;;;;5100381;28;20217;-88
2023/01/20 07:23:32;;;;;;;8.32;5.47;;;;;;;;;;5099722;28;20558;-89
2023/01/20 07:26:01;;;;;;;5.47;4.97;;;;;;;;;;5100325;28;20255;-89
2023/01/20 07:28:30;;;;;;;5.38;4.82;;;;;;;;;;5101039;28;20196;-86
2023/01/20 07:31:04;;;;;;;7.57;5.45;;;;;;;;;;5099543;28;20235;-86
2023/01/20 07:33:32;;;;;;;5.90;5.22;;;;;;;;;;5099923;28;20195;-87
2023/01/20 07:36:00;;;;;;;6.68;4.80;;;;;;;;;;5099465;28;20308;-87
2023/01/20 07:38:30;;;;;;;10.35;8.43;;;;;;;;;;5099355;28;20263;-87
2023/01/20 07:40:58;;;;;;;11.30;8.57;;;;;;;;;;5099491;28;20181;-87
2023/01/20 07:43:25;;;;;;;12.13;8.43;;;;;;;;;;5098642;28;20224;-86
2023/01/20 07:45:55;;;;;;;9.52;7.80;;;;;;;;;;5098161;28;20285;-86
2023/01/20 07:48:25;;;;;;;11.07;8.38;;;;;;;;;;5098007;28;20297;-86
2023/01/20 07:51:01;;;;;;;9.98;8.02;;;;;;;;;;5098065;28;20224;-86
2023/01/20 07:53:29;;;;;;;12.05;8.07;;;;;;;;;;5098307;28;20185;-87
2023/01/20 07:55:56;;;;;;;8.70;6.75;;;;;;;;;;5099379;28;20228;-86
2023/01/20 07:58:24;;;;;;;6.25;5.32;;;;;;;;;;5098558;28;20199;-87
2023/01/20 08:00:51;;;;;;;6.10;4.65;;;;;;;;;;5098119;28;20284;-86
2023/01/20 08:03:19;;;;;;;7.05;5.07;;;;;;;;;;5097108;28;20200;-87
2023/01/20 08:05:48;;;;;;;6.75;4.82;;;;;;;;;;5100878;28;20256;-87
2023/01/20 08:08:15;;;;;;;5.18;4.28;;;;;;;;;;5100683;28;20203;-86
2023/01/20 08:10:43;;;;;;;5.28;4.78;;;;;;;;;;5105577;28;20239;-86
2023/01/20 08:13:11;;;;;;;6.07;5.15;;;;;;;;;;5104842;28;20679;-86
2023/01/20 08:15:38;;;;;;;4.93;4.55;;;;;;;;;;5104100;28;20216;-86
2023/01/20 08:18:06;;;;;;;4.50;4.07;;;;;;;;;;5104233;28;20246;-86
2023/01/20 08:20:33;;;;;;;5.10;3.90;;;;;;;;;;5103431;28;20315;-87
2023/01/20 08:23:02;;;;;;;4.18;3.85;;;;;;;;;;5103109;28;20227;-86
2023/01/20 08:25:29;;;;;;;6.93;5.47;;;;;;;;;;5102718;28;20219;-87
2023/01/20 08:27:57;;;;;;;6.45;4.30;;;;;;;;;;5103285;28;20231;-87
2023/01/20 08:30:25;;;;;;;5.93;5.10;;;;;;;;;;5104459;28;20192;-88
2023/01/20 08:32:52;;;;;;;4.70;4.30;;;;;;;;;;5104399;28;20232;-87
2023/01/20 08:35:20;;;;;;;4.40;4.00;;;;;;;;;;5103255;28;20876;-86
2023/01/20 08:37:47;;;;;;;5.50;4.93;;;;;;;;;;5103339;28;20200;-87
2023/01/20 08:40:17;;;;;;;7.95;6.30;;;;;;;;;;5102680;28;20256;-86
2023/01/20 08:42:44;;;;;;;6.25;5.50;;;;;;;;;;5101526;28;20236;-86
2023/01/20 08:45:12;;;;;;;6.68;5.25;;;;;;;;;;5102493;28;20283;-86
2023/01/20 08:47:44;;;;;;;4.90;4.40;;;;;;;;;;5102579;28;20216;-86
2023/01/20 08:50:14;;;;;;;5.15;4.65;;;;;;;;;;5103366;28;20189;-85
2023/01/20 08:52:41;;;;;;;7.22;6.43;;;;;;;;;;5103082;28;20291;-86
2023/01/20 08:55:10;;;;;;;6.70;6.00;;;;;;;;;;5102275;28;20240;-86
2023/01/20 08:57:38;;;;;;;5.50;5.00;;;;;;;;;;5101538;28;20272;-86
2023/01/20 09:00:10;;;;;;;6.45;5.80;;;;;;;;;;5102121;28;20240;-86
2023/01/20 09:02:38;;;;;;;6.50;5.47;;;;;;;;;;5102513;28;20188;-86
2023/01/20 09:05:07;;;;;;;6.25;5.40;;;;;;;;;;5102102;28;20287;-87
2023/01/20 09:07:35;;;;;;;5.63;5.07;;;;;;;;;;5103022;28;20208;-86
2023/01/20 09:10:02;;;;;;;6.85;5.63;;;;;;;;;;5103977;28;20224;-86
2023/01/20 09:12:30;;;;;;;6.63;6.03;;;;;;;;;;5103778;28;20208;-86
2023/01/20 09:15:06;;;;;;;7.03;6.32;;;;;;;;;;5103887;28;20200;-87
2023/01/20 09:17:35;;;;;;;8.50;7.07;;;;;;;;;;5103373;28;20180;-88
2023/01/20 09:20:02;;;;;;;7.63;6.30;;;;;;;;;;5103191;28;20224;-88
2023/01/20 09:22:30;;;;;;;8.82;7.90;;;;;;;;;;5103953;28;20224;-86
2023/01/20 09:24:59;;;;;;;9.48;7.70;;;;;;;;;;5102511;28;20228;-86
2023/01/20 09:27:26;;;;;;;8.85;7.97;;;;;;;;;;5104255;28;20222;-87
2023/01/20 09:29:54;;;;;;;9.60;7.50;;;;;;;;;;5104112;28;20204;-86
2023/01/20 09:32:23;;;;;;;8.90;7.32;;;;;;;;;;5105486;28;20200;-87
2023/01/20 09:34:50;;;;;;;6.88;6.20;;;;;;;;;;5103342;28;20269;-87
2023/01/20 09:45:52;;;;;;;14.63;8.90;;;;;;;;;;5103316;28;20660;-87
2023/01/20 09:54:07;;;;;;;13.48;10.82;;;;;;;;;;5103065;28;20187;-87
2023/01/20 09:56:41;;;;;;;11.50;9.00;;;;;;;;;;5102901;28;20311;-87
2023/01/20 09:59:12;;;;;;;9.38;7.20;;;;;;;;;;5102835;28;20211;-87
2023/01/20 10:01:42;;;;;;;10.52;9.20;;;;;;;;;;5104065;28;20204;-88
2023/01/20 10:04:16;;;;;;;9.50;8.35;;;;;;;;;;5103707;28;20193;-87
2023/01/20 10:06:47;;;;;;;11.20;8.88;;;;;;;;;;5104226;28;20315;-88
2023/01/20 10:09:23;;;;;;;7.85;6.82;;;;;;;;;;5104214;28;20228;-87
2023/01/20 10:11:53;;;;;;;10.90;9.13;;;;;;;;;;5104912;28;20223;-87
2023/01/20 10:14:28;;;;;;;8.82;7.15;;;;;;;;;;5104086;28;20231;-86
2023/01/20 10:17:01;;;;;;;7.25;6.43;;;;;;;;;;5103981;28;20242;-88
2023/01/20 10:19:37;;;;;;;8.35;7.50;;;;;;;;;;5105426;28;20184;-87
2023/01/20 10:22:10;;;;;;;13.05;10.20;;;;;;;;;;5103610;28;20228;-87
2023/01/20 10:24:43;;;;;;;12.80;9.70;;;;;;;;;;5103835;28;20196;-87
2023/01/20 10:27:11;;;;;;;9.70;7.18;;;;;;;;;;5102849;28;20225;-87
2023/01/20 10:29:43;;;;;;;8.35;6.15;;;;;;;;;;5103623;28;20227;-87
2023/01/20 10:32:16;;;;;;;7.63;6.88;;;;;;;;;;5102978;28;20236;-86
2023/01/20 10:34:48;;;;;;;16.35;11.75;;;;;;;;;;5103647;28;20394;-87
2023/01/20 10:37:15;;;;;;;13.20;11.07;;;;;;;;;;5104777;28;20255;-87
2023/01/20 10:39:51;;;;;;;8.73;7.72;;;;;;;;;;5104129;28;20560;-87
2023/01/20 10:42:20;;;;;;;8.95;7.28;;;;;;;;;;5104221;28;20235;-87
2023/01/20 10:44:50;;;;;;;10.05;7.22;;;;;;;;;;5103167;28;20215;-87
2023/01/20 10:47:26;;;;;;;10.25;9.05;;;;;;;;;;5105181;28;20307;-87
2023/01/20 10:50:28;;;;;;;10.15;8.75;;;;;;;;;;5105528;28;20522;-87
2023/01/20 10:53:21;;;;;;;8.55;7.50;;;;;;;;;;5093771;28;20208;-87
2023/01/20 10:56:02;;;;;;;9.63;8.45;;;;;;;;;;5104188;28;20246;-87
2023/01/20 10:58:32;;;;;;;10.52;8.45;;;;;;;;;;5105744;28;20180;-88
2023/01/20 11:01:07;;;;;;;10.52;7.82;;;;;;;;;;5103526;28;20220;-86
2023/01/20 11:03:37;;;;;;;10.85;7.72;;;;;;;;;;5101127;28;20196;-88
2023/01/20 11:06:07;;;;;;;7.97;7.07;;;;;;;;;;5101727;28;20642;-88
2023/01/20 11:08:35;;;;;;;8.82;6.60;;;;;;;;;;5102262;28;20234;-88
2023/01/20 11:11:11;;;;;;;8.68;7.78;;;;;;;;;;5102870;28;20261;-87
2023/01/20 11:13:39;;;;;;;10.25;9.25;;;;;;;;;;5103047;28;20177;-88
2023/01/20 11:16:14;;;;;;;13.27;11.10;;;;;;;;;;5102845;28;20239;-87
2023/01/20 11:18:41;;;;;;;10.07;8.90;;;;;;;;;;5102204;28;20266;-86
2023/01/20 11:21:13;;;;;;;12.35;9.27;;;;;;;;;;5100480;28;20216;-86
2023/01/20 11:23:51;;;;;;;13.32;11.90;;;;;;;;;;5102192;28;20201;-88
2023/01/20 11:26:20;;;;;;;15.85;11.35;;;;;;;;;;5102904;28;20245;-87
2023/01/20 11:28:53;;;;;;;15.38;11.02;;;;;;;;;;5101998;28;20204;-85
2023/01/20 11:31:22;;;;;;;13.45;10.55;;;;;;;;;;5103604;28;20560;-87
2023/01/20 11:33:58;;;;;;;12.85;11.05;;;;;;;;;;5102456;28;20442;-86
2023/01/20 11:36:28;;;;;;;17.73;12.00;;;;;;;;;;5101407;28;20295;-88
2023/01/20 11:38:57;;;;;;;9.70;8.70;;;;;;;;;;5101800;28;20218;-87
2023/01/20 11:41:27;;;;;;;13.38;10.00;;;;;;;;;;5102695;28;20220;-87
2023/01/20 11:43:58;;;;;;;15.20;11.48;;;;;;;;;;5110131;28;20280;-86
2023/01/20 11:46:30;;;;;;;13.00;10.43;;;;;;;;;;5123706;28;20207;-86
2023/01/20 11:49:15;;;;;;;11.32;8.90;;;;;;;;;;5122678;28;20210;-86
2023/01/20 11:51:51;;;;;;;13.23;9.82;;;;;;;;;;5122006;28;20234;-87
2023/01/20 11:54:21;;;;;;;12.00;10.35;;;;;;;;;;5120499;28;20236;-87
2023/01/20 11:56:52;;;;;;;11.02;8.70;;;;;;;;;;5120995;28;20257;-85
2023/01/20 11:59:25;;;;;;;15.07;9.95;;;;;;;;;;5121152;28;20672;-85
2023/01/20 12:01:59;;;;;;;10.65;9.13;;;;;;;;;;5119725;28;20223;-84
2023/01/20 12:04:51;;;;;;;12.55;9.73;;;;;;;;;;5120798;28;20214;-85
2023/01/20 12:07:25;;;;;;;11.75;9.70;;;;;;;;;;5121763;28;20292;-86
2023/01/20 12:09:55;;;;;;;10.68;8.73;;;;;;;;;;5120673;28;20214;-86
2023/01/20 12:12:29;;;;;;;11.80;10.02;;;;;;;;;;5121223;28;20196;-87
2023/01/20 12:15:04;;;;;;;15.48;10.93;;;;;;;;;;5123206;28;20183;-86
2023/01/20 12:17:50;;;;;;;11.18;8.77;;;;;;;;;;5122558;28;20188;-86
2023/01/20 12:20:25;;;;;;;13.25;9.15;;;;;;;;;;5121946;27;20202;-87
2023/01/20 12:23:07;;;;;;;9.93;8.93;;;;;;;;;;5122172;28;20672;-87
2023/01/20 12:25:42;;;;;;;9.80;8.07;;;;;;;;;;5123228;28;20606;-86
2023/01/20 12:28:16;;;;;;;10.88;8.35;;;;;;;;;;5123102;28;20253;-86
2023/01/20 12:30:58;;;;;;;10.93;8.80;;;;;;;;;;5122247;28;20191;-86
2023/01/20 12:33:28;;;;;;;14.60;10.77;;;;;;;;;;5122799;28;20180;-86
2023/01/20 12:36:43;;;;;;;15.85;10.88;;;;;;;;;;5122509;27;20290;-85
2023/01/20 12:39:27;;;;;;;14.20;11.10;;;;;;;;;;5113661;28;20238;-86
2023/01/20 12:42:42;;;;;;;13.93;11.15;;;;;;;;;;5120216;28;20240;-87
2023/01/20 12:45:21;;;;;;;12.60;11.20;;;;;;;;;;5115778;28;20263;-85
2023/01/20 12:48:04;;;;;;;14.98;11.63;;;;;;;;;;5118505;28;20183;-85
2023/01/20 12:50:43;;;;;;;16.50;11.75;;;;;;;;;;5119778;28;20261;-86
2023/01/20 12:53:50;;;;;;;11.77;10.13;;;;;;;;;;5120609;28;20271;-86
2023/01/20 12:56:28;;;;;;;13.57;11.18;;;;;;;;;;5121213;28;20281;-86
2023/01/20 12:59:04;;;;;;;15.02;10.35;;;;;;;;;;5123209;28;20271;-86
2023/01/20 13:01:49;;;;;;;14.05;11.88;;;;;;;;;;5122386;28;20201;-86
2023/01/20 13:04:37;;;;;;;15.85;11.82;;;;;;;;;;5121745;28;20202;-87
2023/01/20 13:07:54;;;;;;;15.20;12.75;;;;;;;;;;5122826;28;20369;-86
2023/01/20 13:10:51;;;;;;;16.02;12.45;;;;;;;;;;5121893;28;20511;-86
2023/01/20 13:13:35;;;;;;;18.20;13.73;;;;;;;;;;5123025;28;20215;-87
2023/01/20 13:16:09;;;;;;;14.38;10.18;;;;;;;;;;5123462;28;20241;-85
2023/01/20 13:18:52;;;;;;;13.95;10.25;;;;;;;;;;5124003;28;20188;-86
2023/01/20 13:21:20;;;;;;;11.38;9.38;;;;;;;;;;5123390;28;20706;-85
2023/01/20 13:23:49;;;;;;;10.75;9.20;;;;;;;;;;5123280;28;20223;-85
2023/01/20 13:26:17;;;;;;;14.50;11.38;;;;;;;;;;5123576;28;20219;-85
2023/01/20 13:28:53;;;;;;;10.82;9.68;;;;;;;;;;5122603;28;20251;-87
2023/01/20 13:31:42;;;;;;;11.15;8.95;;;;;;;;;;5124269;28;20247;-86
2023/01/20 13:34:40;;;;;;;8.52;7.20;;;;;;;;;;5124920;28;20176;-85
2023/01/20 13:37:34;;;;;;;11.63;9.43;;;;;;;;;;5061311;28;20316;-88
2023/01/20 13:40:02;;;;;;;12.27;9.23;;;;;;;;;;5119295;28;20282;-88
2023/01/20 13:42:49;;;;;;;10.65;8.25;;;;;;;;;;5123649;28;20226;-87
2023/01/20 13:45:25;;;;;;;11.27;8.48;;;;;;;;;;5122880;28;20199;-88
2023/01/20 13:48:02;;;;;;;8.73;7.53;;;;;;;;;;5125547;28;20268;-87
2023/01/20 13:50:32;;;;;;;8.57;6.63;;;;;;;;;;5126356;28;20467;-89
2023/01/20 13:53:14;;;;;;;9.35;7.78;;;;;;;;;;5124319;28;20215;-86
2023/01/20 13:56:02;;;;;;;9.20;7.55;;;;;;;;;;5125664;28;20247;-86
2023/01/20 13:58:35;;;;;;;8.85;7.68;;;;;;;;;;5124924;28;20200;-88
2023/01/20 14:01:07;;;;;;;8.93;7.55;;;;;;;;;;5123984;28;20243;-88
2023/01/20 14:03:36;;;;;;;10.43;8.23;;;;;;;;;;5125679;28;20208;-88
2023/01/20 14:06:06;;;;;;;10.35;8.70;;;;;;;;;;5120173;28;20222;-87
2023/01/20 14:08:41;;;;;;;9.30;7.78;;;;;;;;;;5115771;28;20200;-88
2023/01/20 14:11:13;;;;;;;10.18;8.65;;;;;;;;;;5116193;28;20636;-88
2023/01/20 14:13:41;;;;;;;10.40;8.45;;;;;;;;;;5116577;28;20646;-88
2023/01/20 14:16:20;;;;;;;9.25;7.55;;;;;;;;;;5115954;28;20306;-89
2023/01/20 14:18:48;;;;;;;9.13;7.40;;;;;;;;;;5116300;28;20397;-88
2023/01/20 14:21:20;;;;;;;7.95;6.47;;;;;;;;;;5116207;28;20551;-87
2023/01/20 14:23:48;;;;;;;7.95;7.15;;;;;;;;;;5115528;28;20207;-89
2023/01/20 14:26:23;;;;;;;12.57;9.18;;;;;;;;;;5115790;28;20749;-88
2023/01/20 14:28:53;;;;;;;11.02;8.30;;;;;;;;;;5115345;28;20268;-88
2023/01/20 14:31:35;;;;;;;7.07;6.18;;;;;;;;;;5115014;28;20172;-88
2023/01/20 14:34:22;;;;;;;11.32;7.68;;;;;;;;;;5115300;28;20670;-86
2023/01/20 14:36:50;;;;;;;7.75;6.75;;;;;;;;;;5114635;28;20310;-89
2023/01/20 14:39:21;;;;;;;6.32;5.28;;;;;;;;;;5114946;28;20262;-88
2023/01/20 14:41:50;;;;;;;8.68;6.28;;;;;;;;;;5115079;28;20194;-88
2023/01/20 14:44:21;;;;;;;7.03;6.32;;;;;;;;;;5114963;28;20319;-88
2023/01/20 14:46:53;;;;;;;5.00;4.50;;;;;;;;;;5115455;28;20223;-89
2023/01/20 14:49:24;;;;;;;6.00;5.40;;;;;;;;;;5115214;28;20286;-89
2023/01/20 14:51:52;;;;;;;6.82;6.07;;;;;;;;;;5115394;28;20218;-87
2023/01/20 14:54:37;;;;;;;5.00;4.28;;;;;;;;;;5114998;28;20381;-88
2023/01/20 14:57:24;;;;;;;5.13;4.65;;;;;;;;;;5114677;28;20310;-88
2023/01/20 15:00:19;;;;;;;4.30;4.00;;;;;;;;;;5094067;28;20181;-90
2023/01/20 15:02:51;;;;;;;4.95;4.45;;;;;;;;;;5089481;28;20206;-88
2023/01/20 15:05:29;;;;;;;4.03;3.63;;;;;;;;;;5094328;28;20189;-88
2023/01/20 15:08:24;;;;;;;5.13;4.72;;;;;;;;;;5094461;28;20204;-88
2023/01/20 15:11:20;;;;;;;7.50;6.80;;;;;;;;;;5089294;28;20205;-88
2023/01/20 15:14:10;;;;;;;10.48;7.47;;;;;;;;;;5095150;28;20177;-87
2023/01/20 15:16:49;;;;;;;7.78;7.07;;;;;;;;;;5094709;28;20685;-88
2023/01/20 15:19:35;;;;;;;7.28;5.60;;;;;;;;;;5094734;28;20237;-89
2023/01/20 15:22:22;;;;;;;6.68;5.97;;;;;;;;;;5095162;28;20192;-88
2023/01/20 15:24:50;;;;;;;7.03;6.05;;;;;;;;;;5093990;28;20226;-88